createdAt,value
2022-11-30T00:01:11.536Z,49.72
2022-11-30T00:03:38.487Z,50.97
2022-11-30T00:06:07.414Z,51.58
2022-11-30T00:08:34.288Z,50.05
2022-11-30T00:11:01.109Z,50.25
2022-11-30T00:13:27.736Z,51.22
2022-11-30T00:15:54.432Z,48.50
2022-11-30T00:18:21.157Z,51.08
2022-11-30T00:20:48.016Z,53.15
2022-11-30T00:23:14.737Z,51.15
2022-11-30T00:25:41.382Z,50.53
2022-11-30T00:28:08.183Z,50.08
2022-11-30T00:30:34.892Z,49.28
2022-11-30T00:33:02.118Z,52.63
2022-11-30T00:35:28.857Z,51.53
2022-11-30T00:37:55.520Z,50.17
2022-11-30T00:40:22.696Z,51.47
2022-11-30T00:42:49.371Z,50.50
2022-11-30T00:45:16.168Z,50.67
2022-11-30T00:47:42.781Z,50.40
2022-11-30T00:50:09.887Z,49.63
2022-11-30T00:52:36.558Z,51.70
2022-11-30T00:55:04.365Z,53.25
2022-11-30T00:57:31.603Z,52.45
2022-11-30T00:59:58.187Z,51.92
2022-11-30T01:02:24.880Z,52.13
2022-11-30T01:04:51.873Z,50.22
2022-11-30T01:07:18.515Z,49.13
2022-11-30T01:09:45.182Z,53.10
2022-11-30T01:12:11.794Z,52.63
2022-11-30T01:14:38.558Z,52.88
2022-11-30T01:17:05.143Z,54.53
2022-11-30T01:19:31.759Z,52.45
2022-11-30T01:21:58.549Z,53.03
2022-11-30T01:24:25.309Z,49.25
2022-11-30T01:26:52.079Z,52.80
2022-11-30T01:29:18.683Z,50.33
2022-11-30T01:31:45.270Z,53.40
2022-11-30T01:34:11.968Z,52.03
2022-11-30T01:36:39.005Z,53.95
2022-11-30T01:39:09.400Z,51.13
2022-11-30T01:41:36.993Z,51.58
2022-11-30T01:44:06.633Z,51.83
2022-11-30T01:46:45.992Z,52.75
2022-11-30T01:49:21.416Z,51.30
2022-11-30T01:51:53.472Z,51.45
2022-11-30T01:54:28.431Z,51.78
2022-11-30T01:57:04.376Z,50.15
2022-11-30T01:59:31.435Z,52.50
2022-11-30T02:01:58.319Z,53.20
2022-11-30T02:04:43.252Z,53.60
2022-11-30T02:07:10.024Z,53.00
2022-11-30T02:09:43.136Z,53.30
2022-11-30T02:12:37.245Z,51.28
2022-11-30T02:15:11.369Z,50.78
2022-11-30T02:18:06.161Z,52.13
2022-11-30T02:21:00.756Z,49.67
2022-11-30T02:23:48.954Z,48.92
2022-11-30T02:26:51.078Z,53.50
2022-11-30T02:29:25.135Z,49.53
2022-11-30T02:32:16.683Z,52.45
2022-11-30T02:34:44.810Z,53.58
2022-11-30T02:37:13.709Z,50.83
2022-11-30T02:39:40.396Z,51.25
2022-11-30T02:42:14.366Z,50.75
2022-11-30T02:44:47.295Z,51.85
2022-11-30T02:47:25.884Z,50.08
2022-11-30T02:50:11.255Z,51.90
2022-11-30T02:52:37.989Z,51.50
2022-11-30T02:55:09.184Z,51.25
2022-11-30T02:57:36.776Z,54.70
2022-11-30T03:00:07.353Z,53.47
2022-11-30T03:02:34.238Z,51.30
2022-11-30T03:05:01.005Z,49.85
2022-11-30T03:07:27.816Z,55.13
2022-11-30T03:09:54.509Z,54.15
2022-11-30T03:12:21.297Z,53.35
2022-11-30T03:14:48.200Z,55.00
2022-11-30T03:17:15.146Z,51.55
2022-11-30T03:19:41.960Z,51.88
2022-11-30T03:22:08.682Z,54.55
2022-11-30T03:24:35.428Z,55.80
2022-11-30T03:27:02.225Z,52.50
2022-11-30T03:29:28.909Z,51.95
2022-11-30T03:31:55.571Z,54.78
2022-11-30T03:34:22.810Z,51.25
2022-11-30T03:36:49.455Z,53.22
2022-11-30T03:39:16.270Z,52.83
2022-11-30T03:41:42.891Z,53.30
2022-11-30T03:44:09.619Z,49.75
2022-11-30T03:46:36.370Z,51.45
2022-11-30T03:49:03.177Z,54.88
2022-11-30T03:51:29.903Z,53.53
2022-11-30T03:53:56.664Z,50.70
2022-11-30T03:56:24.316Z,53.58
2022-11-30T03:58:51.483Z,53.65
2022-11-30T04:01:22.440Z,52.08
2022-11-30T04:03:53.145Z,49.85
2022-11-30T04:06:21.292Z,50.22
2022-11-30T04:08:48.880Z,55.45
2022-11-30T04:11:16.172Z,52.70
2022-11-30T04:13:43.654Z,52.30
2022-11-30T04:16:10.492Z,54.95
2022-11-30T04:18:37.805Z,57.35
2022-11-30T04:21:05.380Z,55.08
2022-11-30T04:23:35.108Z,54.60
2022-11-30T04:26:11.535Z,52.50
2022-11-30T04:28:38.270Z,55.63
2022-11-30T04:31:05.626Z,52.08
2022-11-30T04:33:32.608Z,52.80
2022-11-30T04:36:24.291Z,53.17
2022-11-30T04:38:51.072Z,53.25
2022-11-30T04:41:17.683Z,52.13
2022-11-30T04:43:44.451Z,54.65
2022-11-30T04:46:11.348Z,54.97
2022-11-30T04:48:38.038Z,56.90
2022-11-30T04:51:07.453Z,55.30
2022-11-30T04:53:35.693Z,56.30
2022-11-30T04:56:10.017Z,54.20
2022-11-30T04:58:37.162Z,55.78
2022-11-30T05:01:03.822Z,53.38
2022-11-30T05:03:30.496Z,55.50
2022-11-30T05:05:57.262Z,53.83
2022-11-30T05:08:24.410Z,57.20
2022-11-30T05:10:54.822Z,56.15
2022-11-30T05:13:25.013Z,56.65
2022-11-30T05:18:20.577Z,53.92
2022-11-30T05:20:49.016Z,54.70
2022-11-30T05:23:16.553Z,55.10
2022-11-30T05:25:44.007Z,55.60
2022-11-30T05:28:11.163Z,57.65
2022-11-30T05:30:41.750Z,55.72
2022-11-30T05:33:08.660Z,57.70
2022-11-30T05:35:35.977Z,52.97
2022-11-30T05:38:03.409Z,56.97
2022-11-30T05:40:32.425Z,56.53
2022-11-30T05:43:00.503Z,55.78
2022-11-30T05:45:27.663Z,56.47
2022-11-30T05:47:54.376Z,55.22
2022-11-30T05:50:21.447Z,56.15
2022-11-30T05:52:48.030Z,54.60
2022-11-30T05:55:14.820Z,54.50
2022-11-30T05:57:41.448Z,55.35
2022-11-30T06:00:09.258Z,54.60
2022-11-30T06:02:36.101Z,52.80
2022-11-30T06:05:02.891Z,53.90
2022-11-30T06:07:29.577Z,54.10
2022-11-30T06:09:56.298Z,56.08
2022-11-30T06:12:23.009Z,53.65
2022-11-30T06:14:50.901Z,55.35
2022-11-30T06:17:17.941Z,55.90
2022-11-30T06:19:44.898Z,54.22
2022-11-30T06:22:11.665Z,55.47
2022-11-30T06:24:38.272Z,55.63
2022-11-30T06:27:04.858Z,54.92
2022-11-30T06:29:31.512Z,54.60
2022-11-30T06:31:58.159Z,57.92
2022-11-30T06:34:25.049Z,55.88
2022-11-30T06:36:51.731Z,56.55
2022-11-30T06:39:31.467Z,57.20
2022-11-30T06:42:05.379Z,56.15
2022-11-30T06:44:31.987Z,56.17
2022-11-30T06:46:58.601Z,53.33
2022-11-30T06:49:25.257Z,51.85
2022-11-30T06:51:51.909Z,54.45
2022-11-30T06:54:18.552Z,56.72
2022-11-30T06:56:45.183Z,52.53
2022-11-30T06:59:11.976Z,56.70
2022-11-30T07:01:38.641Z,52.83
2022-11-30T07:04:05.389Z,54.00
2022-11-30T07:06:32.065Z,52.20
2022-11-30T07:08:58.753Z,54.03
2022-11-30T07:11:25.420Z,53.63
2022-11-30T07:13:52.219Z,54.47
2022-11-30T07:16:18.854Z,55.83
2022-11-30T07:18:45.480Z,56.47
2022-11-30T07:21:12.263Z,56.55
2022-11-30T07:23:57.744Z,52.55
2022-11-30T07:26:25.746Z,55.58
2022-11-30T07:28:58.839Z,55.83
2022-11-30T07:31:28.881Z,55.85
2022-11-30T07:33:57.459Z,55.17
2022-11-30T07:36:26.208Z,57.55
2022-11-30T07:38:52.841Z,55.58
2022-11-30T07:41:19.559Z,56.67
2022-11-30T07:43:46.205Z,55.70
2022-11-30T07:46:14.795Z,54.55
2022-11-30T07:48:42.514Z,57.80
2022-11-30T07:51:16.840Z,55.70
2022-11-30T07:53:43.738Z,56.78
2022-11-30T07:56:17.353Z,54.65
2022-11-30T07:58:44.184Z,54.80
2022-11-30T08:01:17.615Z,56.40
2022-11-30T08:03:44.613Z,55.80
2022-11-30T08:06:23.096Z,55.13
2022-11-30T08:08:51.983Z,56.35
2022-11-30T08:11:20.815Z,53.75
2022-11-30T08:13:47.662Z,57.22
2022-11-30T08:16:23.899Z,54.88
2022-11-30T08:18:51.216Z,57.78
2022-11-30T08:21:20.043Z,54.08
2022-11-30T08:23:49.871Z,55.65
2022-11-30T08:26:25.950Z,54.80
2022-11-30T08:28:54.720Z,54.67
2022-11-30T08:31:30.208Z,55.33
2022-11-30T08:34:02.439Z,53.65
2022-11-30T08:36:30.170Z,54.83
2022-11-30T08:38:58.571Z,51.17
2022-11-30T08:41:25.782Z,53.70
2022-11-30T08:43:52.870Z,51.72
2022-11-30T08:46:50.162Z,54.30
2022-11-30T08:49:24.803Z,53.58
2022-11-30T08:54:46.191Z,55.73
2022-11-30T08:57:17.800Z,53.30
2022-11-30T08:59:44.871Z,55.20
2022-11-30T09:02:14.117Z,55.05
2022-11-30T09:04:40.905Z,51.47
2022-11-30T09:07:07.603Z,53.17
2022-11-30T09:09:34.329Z,54.30
2022-11-30T09:12:01.069Z,53.15
2022-11-30T09:14:27.948Z,53.25
2022-11-30T09:16:55.305Z,51.80
2022-11-30T09:19:22.315Z,51.03
2022-11-30T09:21:51.847Z,53.00
2022-11-30T09:24:20.197Z,51.67
2022-11-30T09:26:46.970Z,51.70
2022-11-30T09:29:13.578Z,51.47
2022-11-30T09:31:40.276Z,50.25
2022-11-30T09:34:06.955Z,50.75
2022-11-30T09:36:34.076Z,51.60
2022-11-30T09:39:00.973Z,51.45
2022-11-30T09:41:45.096Z,51.15
2022-11-30T09:44:34.279Z,50.60
2022-11-30T09:47:29.200Z,48.22
2022-11-30T09:50:11.151Z,49.22
2022-11-30T09:52:43.209Z,50.40
2022-11-30T09:55:12.143Z,48.65
2022-11-30T09:57:55.212Z,48.80
2022-11-30T10:00:24.135Z,49.85
2022-11-30T10:02:53.352Z,50.88
2022-11-30T10:05:39.298Z,48.55
2022-11-30T10:08:29.962Z,48.85
2022-11-30T10:11:14.592Z,50.50
2022-11-30T10:13:55.795Z,50.13
2022-11-30T10:17:13.279Z,51.20
2022-11-30T10:20:13.115Z,50.97
2022-11-30T10:23:01.878Z,49.80
2022-11-30T10:25:52.685Z,52.97
2022-11-30T10:31:14.711Z,50.38
2022-11-30T10:33:51.479Z,50.20
2022-11-30T10:36:43.549Z,51.17
2022-11-30T10:39:37.484Z,49.58
2022-11-30T10:42:31.366Z,47.78
2022-11-30T10:45:06.235Z,50.97
2022-11-30T10:47:37.293Z,51.53
2022-11-30T10:50:05.585Z,49.97
2022-11-30T10:52:41.816Z,49.70
2022-11-30T10:55:19.434Z,50.25
2022-11-30T10:57:48.319Z,53.08
2022-11-30T11:00:18.980Z,52.70
2022-11-30T11:02:51.359Z,52.13
2022-11-30T11:05:19.874Z,50.85
2022-11-30T11:07:52.689Z,51.40
2022-11-30T11:10:24.071Z,52.15
2022-11-30T11:12:53.584Z,53.15
2022-11-30T11:15:23.815Z,53.25
2022-11-30T11:20:31.395Z,53.13
2022-11-30T11:22:58.153Z,54.28
2022-11-30T11:25:24.865Z,52.53
2022-11-30T11:27:54.137Z,51.05
2022-11-30T11:30:26.483Z,50.73
2022-11-30T11:33:24.691Z,51.10
2022-11-30T11:36:06.521Z,53.00
2022-11-30T11:38:47.126Z,48.30
2022-11-30T11:41:22.642Z,47.97
2022-11-30T11:44:03.025Z,47.97
2022-11-30T11:46:36.488Z,51.33
2022-11-30T11:49:31.775Z,51.55
2022-11-30T11:52:06.915Z,51.38
2022-11-30T11:54:54.711Z,55.03
2022-11-30T11:57:27.695Z,53.75
2022-11-30T12:00:05.683Z,53.30
2022-11-30T12:02:52.281Z,51.70
2022-11-30T12:05:31.431Z,52.65
2022-11-30T12:08:07.631Z,51.90
2022-11-30T12:11:14.525Z,52.20
2022-11-30T12:13:43.111Z,52.20
2022-11-30T12:16:40.400Z,49.80
2022-11-30T12:19:11.225Z,54.17
2022-11-30T12:22:14.806Z,51.55
2022-11-30T12:25:06.159Z,55.38
2022-11-30T12:27:52.082Z,53.33
2022-11-30T12:30:51.644Z,53.22
2022-11-30T12:33:56.873Z,57.17
2022-11-30T12:37:03.083Z,54.80
2022-11-30T12:39:45.268Z,55.00
2022-11-30T12:42:20.385Z,55.28
2022-11-30T12:45:17.156Z,53.72
2022-11-30T12:48:23.805Z,53.88
2022-11-30T12:51:08.577Z,56.03
2022-11-30T12:53:43.064Z,51.60
2022-11-30T12:56:27.206Z,52.38
2022-11-30T12:59:32.004Z,54.17
2022-11-30T13:02:04.457Z,55.67
2022-11-30T13:04:40.454Z,52.03
2022-11-30T13:07:16.589Z,55.70
2022-11-30T13:09:54.944Z,55.20
2022-11-30T13:12:36.155Z,56.42
2022-11-30T13:15:15.742Z,54.90
2022-11-30T13:17:44.011Z,54.28
2022-11-30T13:20:11.170Z,55.95
2022-11-30T13:23:05.080Z,58.15
2022-11-30T13:26:07.287Z,52.05
2022-11-30T13:28:40.912Z,55.20
2022-11-30T13:31:43.867Z,57.00
2022-11-30T13:34:28.488Z,54.70
2022-11-30T13:37:11.345Z,56.10
2022-11-30T13:39:45.291Z,54.45
2022-11-30T13:42:23.944Z,56.28
2022-11-30T13:44:50.893Z,55.80
2022-11-30T13:47:30.174Z,56.20
2022-11-30T13:50:05.296Z,57.28
2022-11-30T13:53:02.937Z,53.25
2022-11-30T13:55:41.526Z,53.30
2022-11-30T13:58:10.343Z,55.78
2022-11-30T14:00:37.213Z,51.95
2022-11-30T14:03:22.244Z,51.92
2022-11-30T14:05:58.953Z,54.05
2022-11-30T14:08:32.817Z,53.95
2022-11-30T14:11:17.703Z,54.78
2022-11-30T14:13:44.856Z,54.08
2022-11-30T14:16:27.331Z,53.58
2022-11-30T14:18:55.417Z,50.60
2022-11-30T14:21:32.279Z,51.25
2022-11-30T14:24:04.081Z,53.20
2022-11-30T14:26:40.173Z,54.13
2022-11-30T14:29:16.915Z,51.17
2022-11-30T14:31:56.906Z,54.05
2022-11-30T14:34:32.602Z,51.40
2022-11-30T14:37:22.720Z,53.15
2022-11-30T14:39:50.577Z,52.60
2022-11-30T14:42:24.083Z,54.15
2022-11-30T14:44:50.947Z,53.60
2022-11-30T14:47:35.769Z,50.70
2022-11-30T14:50:05.907Z,53.28
2022-11-30T14:55:25.837Z,49.38
2022-11-30T14:58:13.942Z,53.72
2022-11-30T15:00:43.504Z,53.22
2022-11-30T15:03:40.917Z,53.13
2022-11-30T15:06:08.284Z,53.10
2022-11-30T15:08:38.409Z,52.50
2022-11-30T15:11:11.150Z,51.95
2022-11-30T15:13:41.338Z,54.50
2022-11-30T15:21:30.521Z,51.25
2022-11-30T15:23:59.721Z,49.65
2022-11-30T15:26:52.920Z,53.23
2022-11-30T15:29:36.264Z,52.83
2022-11-30T15:32:08.230Z,53.80
2022-11-30T15:34:52.210Z,51.05
2022-11-30T15:37:29.672Z,53.60
2022-11-30T15:39:58.915Z,52.63
2022-11-30T15:42:40.922Z,50.90
2022-11-30T15:45:16.777Z,50.83
2022-11-30T15:47:43.376Z,50.42
2022-11-30T15:50:32.695Z,48.78
2022-11-30T15:53:01.803Z,52.43
2022-11-30T15:55:59.401Z,51.15
2022-11-30T15:58:33.039Z,48.50
2022-11-30T16:01:09.735Z,50.88
2022-11-30T16:03:56.846Z,50.05
2022-11-30T16:06:24.445Z,48.47
2022-11-30T16:08:51.574Z,52.08
2022-11-30T16:11:19.574Z,48.88
2022-11-30T16:13:47.392Z,48.85
2022-11-30T16:16:21.795Z,50.60
2022-11-30T16:18:48.593Z,50.05
2022-11-30T16:21:18.147Z,48.97
2022-11-30T16:23:45.694Z,50.35
2022-11-30T16:26:36.064Z,50.88
2022-11-30T16:29:02.589Z,51.30
2022-11-30T16:31:29.428Z,48.72
2022-11-30T16:33:56.080Z,51.10
2022-11-30T16:36:23.007Z,49.35
2022-11-30T16:38:51.697Z,50.45
2022-11-30T16:41:21.199Z,50.00
2022-11-30T16:43:50.568Z,52.50
2022-11-30T16:46:25.781Z,50.70
2022-11-30T16:48:52.894Z,47.00
2022-11-30T16:51:34.809Z,48.08
2022-11-30T16:54:01.507Z,47.83
2022-11-30T16:56:28.154Z,49.05
2022-11-30T16:58:54.926Z,45.25
2022-11-30T17:01:34.582Z,46.42
2022-11-30T17:04:15.296Z,45.50
2022-11-30T17:06:41.945Z,47.45
2022-11-30T17:09:17.832Z,44.80
2022-11-30T17:11:46.662Z,44.45
2022-11-30T17:14:14.301Z,43.65
2022-11-30T17:16:41.490Z,42.13
2022-11-30T17:19:08.812Z,40.88
2022-11-30T17:21:38.954Z,42.42
2022-11-30T17:24:06.927Z,42.38
2022-11-30T17:26:33.690Z,41.20
2022-11-30T17:29:00.410Z,41.92
2022-11-30T17:31:27.717Z,43.42
2022-11-30T17:33:54.476Z,41.40
2022-11-30T17:36:21.334Z,43.22
2022-11-30T17:38:48.139Z,45.00
2022-11-30T17:41:19.651Z,45.30
2022-11-30T17:43:47.474Z,45.35
2022-11-30T17:46:16.124Z,42.10
2022-11-30T17:48:43.699Z,43.28
2022-11-30T17:51:11.336Z,44.28
2022-11-30T17:53:39.814Z,44.08
2022-11-30T17:56:09.096Z,45.03
2022-11-30T17:58:43.391Z,43.67
2022-11-30T18:01:17.554Z,42.63
2022-11-30T18:03:44.934Z,44.30
2022-11-30T18:06:12.098Z,43.22
2022-11-30T18:08:40.140Z,43.85
2022-11-30T18:11:21.660Z,42.72
2022-11-30T18:13:54.348Z,44.90
2022-11-30T18:16:26.377Z,46.22
2022-11-30T18:18:54.190Z,43.08
2022-11-30T18:21:22.554Z,42.83
2022-11-30T18:23:50.072Z,43.45
2022-11-30T18:26:22.356Z,44.00
2022-11-30T18:28:54.463Z,43.65
2022-11-30T18:31:21.251Z,43.13
2022-11-30T18:33:48.272Z,43.92
2022-11-30T18:36:15.157Z,44.58
2022-11-30T18:38:41.756Z,44.80
2022-11-30T18:41:08.382Z,46.78
2022-11-30T18:43:35.176Z,45.30
2022-11-30T18:46:06.799Z,43.33
2022-11-30T18:48:33.838Z,43.88
2022-11-30T18:51:09.688Z,45.22
2022-11-30T18:53:36.296Z,45.97
2022-11-30T18:56:20.484Z,45.78
2022-11-30T18:58:48.226Z,45.63
2022-11-30T19:01:19.945Z,44.92
2022-11-30T19:03:51.770Z,46.08
2022-11-30T19:06:19.486Z,46.75
2022-11-30T19:08:47.807Z,47.28
2022-11-30T19:11:15.834Z,44.22
2022-11-30T19:13:43.004Z,48.47
2022-11-30T19:16:15.201Z,48.28
2022-11-30T19:18:42.037Z,48.70
2022-11-30T19:21:10.677Z,47.10
2022-11-30T19:23:38.566Z,47.35
2022-11-30T19:26:07.237Z,48.97
2022-11-30T19:28:36.191Z,45.58
2022-11-30T19:31:17.591Z,46.55
2022-11-30T19:33:46.840Z,44.42
2022-11-30T19:36:24.968Z,48.77
2022-11-30T19:38:51.654Z,43.35
2022-11-30T19:41:20.760Z,45.35
2022-11-30T19:43:53.987Z,44.00
2022-11-30T19:46:24.449Z,46.05
2022-11-30T19:48:57.179Z,45.00
2022-11-30T19:51:23.868Z,46.85
2022-11-30T19:53:55.491Z,45.63
2022-11-30T19:56:23.292Z,44.30
2022-11-30T19:58:50.243Z,45.65
2022-11-30T20:01:25.563Z,43.38
2022-11-30T20:03:54.124Z,44.50
2022-11-30T20:06:25.097Z,46.40
2022-11-30T20:08:51.697Z,45.40
2022-11-30T20:11:18.424Z,47.65
2022-11-30T20:13:45.907Z,44.63
2022-11-30T20:16:16.262Z,46.45
2022-11-30T20:18:46.353Z,45.40
2022-11-30T20:21:18.640Z,45.00
2022-11-30T20:23:47.161Z,45.78
2022-11-30T20:26:20.928Z,47.60
2022-11-30T20:28:49.357Z,47.17
2022-11-30T20:31:18.564Z,45.78
2022-11-30T20:33:45.967Z,46.30
2022-11-30T20:36:13.820Z,45.33
2022-11-30T20:38:40.639Z,45.40
2022-11-30T20:41:11.742Z,45.47
2022-11-30T20:43:38.422Z,46.15
2022-11-30T20:46:18.832Z,46.42
2022-11-30T20:48:46.721Z,45.30
2022-11-30T20:51:32.741Z,42.97
2022-11-30T20:54:01.957Z,40.55
2022-11-30T20:56:28.626Z,42.85
2022-11-30T20:58:55.355Z,44.92
2022-11-30T21:01:22.679Z,46.67
2022-11-30T21:03:50.388Z,43.97
2022-11-30T21:06:22.132Z,44.42
2022-11-30T21:08:48.973Z,44.95
2022-11-30T21:11:18.105Z,45.75
2022-11-30T21:13:47.637Z,47.38
2022-11-30T21:16:16.001Z,47.00
2022-11-30T21:18:44.643Z,45.83
2022-11-30T21:21:14.488Z,46.80
2022-11-30T21:23:41.323Z,44.83
2022-11-30T21:26:19.728Z,45.22
2022-11-30T21:28:47.991Z,46.97
2022-11-30T21:31:15.811Z,44.15
2022-11-30T21:33:47.046Z,45.72
2022-11-30T21:36:19.019Z,43.97
2022-11-30T21:38:45.733Z,46.78
2022-11-30T21:41:14.124Z,46.88
2022-11-30T21:43:41.970Z,47.70
2022-11-30T21:46:17.837Z,44.22
2022-11-30T21:48:46.125Z,45.05
2022-11-30T21:51:25.208Z,44.17
2022-11-30T21:53:54.159Z,43.40
2022-11-30T21:56:30.430Z,41.67
2022-11-30T21:58:57.944Z,42.17
2022-11-30T22:01:31.320Z,43.05
2022-11-30T22:03:59.436Z,45.58
2022-11-30T22:06:27.958Z,45.05
2022-11-30T22:08:57.689Z,44.78
2022-11-30T22:11:24.521Z,47.92
2022-11-30T22:13:53.320Z,41.15
2022-11-30T22:16:21.860Z,40.10
2022-11-30T22:18:48.954Z,42.28
2022-11-30T22:21:24.194Z,38.70
2022-11-30T22:24:02.084Z,38.92
2022-11-30T22:26:30.978Z,38.60
2022-11-30T22:29:06.458Z,39.70
2022-11-30T22:31:40.686Z,39.88
2022-11-30T22:34:07.868Z,38.55
2022-11-30T22:36:37.525Z,40.08
2022-11-30T22:39:12.898Z,38.58
2022-11-30T22:41:41.284Z,37.72
2022-11-30T22:44:10.914Z,39.88
2022-11-30T22:46:37.616Z,37.53
2022-11-30T22:49:09.306Z,41.25
2022-11-30T22:51:38.164Z,38.78
2022-11-30T22:54:06.219Z,38.53
2022-11-30T22:56:35.607Z,39.88
2022-11-30T22:59:02.907Z,39.25
2022-11-30T23:01:35.263Z,38.13
2022-11-30T23:04:05.125Z,40.47
2022-11-30T23:06:32.946Z,41.08
2022-11-30T23:09:00.743Z,40.75
2022-11-30T23:11:29.240Z,40.88
2022-11-30T23:13:56.542Z,41.28
2022-11-30T23:16:23.690Z,43.92
2022-11-30T23:18:55.782Z,42.78
2022-11-30T23:21:25.656Z,42.38
2022-11-30T23:23:52.940Z,42.53
2022-11-30T23:26:25.806Z,42.00
2022-11-30T23:28:53.920Z,41.10
2022-11-30T23:31:33.954Z,42.05
2022-11-30T23:34:07.636Z,42.40
2022-11-30T23:36:35.122Z,40.70
2022-11-30T23:39:08.491Z,41.63
2022-11-30T23:41:35.247Z,43.20
2022-11-30T23:44:02.636Z,43.22
2022-11-30T23:46:29.651Z,42.92
2022-11-30T23:48:56.377Z,43.38
2022-11-30T23:51:23.808Z,41.53
2022-11-30T23:53:50.522Z,43.00
2022-11-30T23:56:19.062Z,41.78
2022-11-30T23:58:46.070Z,40.72
